Time;durP1;ratioP1;P1;durP2;ratioP2;P2;SDS_P1;SDS_P2;PMS_P1;PMS_P2;Temp;Humidity;BMP_temperature;BMP_pressure;BME280_temperature;BME280_humidity;BME280_pressure;Samples;Min_cycle;Max_cycle;Signal;HPM_P1;HPM_P2
2023/05/30 00:01:31;;;;;;;;;1.50;1.00;;;;;22.69;36.29;101632.34;4940013;28;45394;-40
2023/05/30 00:03:57;;;;;;;;;2.00;2.00;;;;;22.68;36.17;101625.34;4957417;28;45512;-42
2023/05/30 00:06:22;;;;;;;;;3.00;3.00;;;;;22.66;36.00;101630.72;4940364;28;45488;-42
2023/05/30 00:08:47;;;;;;;;;3.00;3.00;;;;;22.66;36.02;101629.84;4957897;28;45356;-39
2023/05/30 00:11:13;;;;;;;;;2.00;2.00;;;;;22.66;35.85;101629.84;4957385;28;57108;-39
2023/05/30 00:13:45;;;;;;;;;3.50;3.50;;;;;22.65;36.15;101628.19;4957304;28;45286;-40
2023/05/30 00:16:11;;;;;;;;;3.25;3.00;;;;;22.64;35.84;101631.75;4957874;28;45567;-40
2023/05/30 00:18:39;;;;;;;;;5.75;3.25;;;;;22.64;35.80;101631.75;4957694;28;45560;-38
2023/05/30 00:21:05;;;;;;;;;3.50;3.00;;;;;22.63;35.96;101630.88;4939891;28;46562;-39
2023/05/30 00:23:32;;;;;;;;;4.00;3.00;;;;;22.63;35.69;101628.25;4957317;28;45354;-39
2023/05/30 00:25:57;;;;;;;;;3.00;3.00;;;;;22.62;35.64;101628.31;4957478;28;45405;-39
2023/05/30 00:28:23;;;;;;;;;5.00;3.00;;;;;22.61;35.83;101627.44;4940154;28;45440;-41
2023/05/30 00:30:49;;;;;;;;;4.00;2.50;;;;;22.62;35.73;101631.81;4956734;28;53684;-39
2023/05/30 00:33:14;;;;;;;;;5.25;2.00;;;;;22.62;35.84;101628.31;4957444;28;45452;-39
2023/05/30 00:35:40;;;;;;;;;4.25;3.00;;;;;22.61;35.65;101631.91;4957307;28;45425;-38
2023/05/30 00:38:05;;;;;;;;;3.75;3.25;;;;;22.60;35.70;101633.66;4957312;28;45529;-40
2023/05/30 00:40:31;;;;;;;;;3.00;3.00;;;;;22.60;35.29;101635.47;4957024;28;45377;-40
2023/05/30 00:42:56;;;;;;;;;2.50;2.00;;;;;22.60;35.30;101636.31;4956996;28;45377;-38
2023/05/30 00:45:21;;;;;;;;;5.00;3.00;;;;;22.60;35.19;101632.84;4939617;28;45340;-41
2023/05/30 00:47:48;;;;;;;;;3.75;3.00;;;;;22.58;35.25;101626.75;4957790;28;45612;-39
2023/05/30 00:50:15;;;;;;;;;2.75;2.00;;;;;22.60;35.49;101632.84;4957192;28;46911;-38
2023/05/30 00:52:41;;;;;;;;;5.00;3.75;;;;;22.59;35.31;101636.41;4959486;28;45718;-41
2023/05/30 00:55:06;;;;;;;;;5.00;3.50;;;;;22.58;35.25;101632.91;4960501;28;45408;-39
2023/05/30 00:57:33;;;;;;;;;4.50;3.00;;;;;22.58;35.47;101642.63;4960745;28;45584;-38
2023/05/30 01:00:01;;;;;;;;;4.00;4.00;;;;;22.58;35.17;101638.22;4960026;28;46985;-40
2023/05/30 01:02:27;;;;;;;;;4.75;3.25;;;;;22.58;35.40;101637.34;4960337;28;45847;-39
2023/05/30 01:04:53;;;;;;;;;3.25;3.25;;;;;22.56;35.38;101634.78;4960413;28;45715;-39
2023/05/30 01:07:19;;;;;;;;;5.25;3.50;;;;;22.54;35.40;101640.13;4960358;28;45187;-39
2023/05/30 01:09:45;;;;;;;;;3.50;2.00;;;;;22.54;34.99;101641.94;4960386;28;47347;-39
2023/05/30 01:12:17;;;;;;;;;3.50;3.50;;;;;22.53;35.30;101638.44;4960130;28;45263;-39
2023/05/30 01:14:52;;;;;;;;;5.00;5.00;;;;;22.54;35.45;101639.28;4960009;28;45440;-39
2023/05/30 01:17:50;;;;;;;;;6.75;5.25;;;;;22.53;35.60;101632.28;4960509;28;45415;-41
2023/05/30 01:20:22;;;;;;;;;4.00;4.00;;;;;22.53;35.36;101634.94;4932861;28;48955;-42
2023/05/30 01:23:00;;;;;;;;;5.00;3.25;;;;;22.52;35.43;101634.09;4960260;28;45251;-42
2023/05/30 01:25:35;;;;;;;;;3.25;3.25;;;;;22.51;35.36;101637.66;4960119;28;45320;-41
2023/05/30 01:28:10;;;;;;;;;4.00;4.00;;;;;22.51;35.18;101642.06;4960047;28;45499;-38
2023/05/30 01:30:43;;;;;;;;;2.75;2.50;;;;;22.50;35.22;101641.22;4959731;28;45299;-39
2023/05/30 01:33:10;;;;;;;;;5.25;3.50;;;;;22.50;35.50;101635.94;4942538;28;45383;-39
2023/05/30 01:35:35;;;;;;;;;5.00;3.00;;;;;22.49;35.51;101643.97;4959920;28;45236;-40
2023/05/30 01:38:01;;;;;;;;;2.50;2.50;;;;;22.49;35.44;101650.09;4959981;28;45531;-39
2023/05/30 01:40:28;;;;;;;;;5.25;3.00;;;;;22.49;35.38;101650.09;4959303;28;54032;-39
2023/05/30 01:43:13;;;;;;;;;4.50;4.25;;;;;22.48;35.25;101650.19;4959528;28;45864;-38
2023/05/30 01:45:46;;;;;;;;;9.00;4.00;;;;;22.47;35.36;101649.31;4959818;28;45322;-39
2023/05/30 01:48:19;;;;;;;;;5.50;4.00;;;;;22.46;35.31;101642.31;4958623;28;45171;-39
2023/05/30 01:50:48;;;;;;;;;4.50;4.00;;;;;22.46;35.13;101654.69;4959269;28;47215;-39
2023/05/30 01:53:21;;;;;;;;;4.00;3.00;;;;;22.44;35.46;101646.81;4959436;28;45937;-41
2023/05/30 01:55:50;;;;;;;;;3.00;2.75;;;;;22.44;35.54;101659.19;4942518;28;45387;-40
2023/05/30 01:58:19;;;;;;;;;2.75;2.75;;;;;22.43;35.27;101660.97;4960066;28;45301;-41
2023/05/30 02:00:47;;;;;;;;;4.50;2.25;;;;;22.42;35.26;101653.97;4959257;28;46379;-39
2023/05/30 02:03:12;;;;;;;;;3.25;3.25;;;;;22.42;35.20;101653.97;4941189;28;45953;-42
2023/05/30 02:05:37;;;;;;;;;5.75;2.75;;;;;22.42;35.32;101648.69;4959457;28;45326;-52
2023/05/30 02:08:03;;;;;;;;;4.50;4.50;;;;;22.42;35.41;101661.91;4959363;28;45424;-43
2023/05/30 02:10:28;;;;;;;;;3.25;3.25;;;;;22.42;35.26;101661.91;4959248;28;45381;-43
2023/05/30 02:12:53;;;;;;;;;6.00;4.00;;;;;22.41;35.40;101662.84;4958474;28;65483;-42
2023/05/30 02:15:19;;;;;;;;;4.25;3.50;;;;;22.40;35.16;101661.09;4959200;28;45376;-43
2023/05/30 02:17:44;;;;;;;;;3.50;3.00;;;;;22.41;35.31;101662.84;4959398;28;45619;-38
2023/05/30 02:20:10;;;;;;;;;4.50;3.00;;;;;22.41;35.31;101657.56;4958546;28;58745;-38
2023/05/30 02:22:35;;;;;;;;;2.75;2.00;;;;;22.39;35.06;101656.75;4959119;28;45257;-39
2023/05/30 02:25:01;;;;;;;;;3.00;3.00;;;;;22.38;35.23;101650.59;4958641;28;52057;-39
2023/05/30 02:27:27;;;;;;;;;5.50;3.00;;;;;22.38;35.42;101653.22;4959354;28;45610;-38
2023/05/30 02:29:52;;;;;;;;;5.00;2.50;;;;;22.38;35.22;101657.66;4959177;28;45988;-41
2023/05/30 02:32:17;;;;;;;;;5.00;3.25;;;;;22.38;35.40;101652.38;4958363;28;60203;-40
2023/05/30 02:34:42;;;;;;;;;5.25;4.50;;;;;22.37;35.26;101650.66;4959070;28;45342;-41
2023/05/30 02:37:08;;;;;;;;;6.00;3.75;;;;;22.36;35.68;101641.91;4959164;28;45318;-38
2023/05/30 02:39:33;;;;;;;;;5.67;4.00;;;;;22.35;35.49;101642.84;4958133;28;64786;-38
2023/05/30 02:41:59;;;;;;;;;4.50;3.50;;;;;22.36;35.24;101659.53;4958636;28;45311;-41
2023/05/30 02:44:24;;;;;;;;;3.25;3.00;;;;;22.35;35.38;101657.81;4958946;28;45463;-39
2023/05/30 02:46:50;;;;;;;;;3.00;3.00;;;;;22.35;35.29;101652.53;4959264;28;45633;-39
2023/05/30 02:49:15;;;;;;;;;6.00;4.25;;;;;22.34;35.36;101653.47;4957475;28;46249;-39
2023/05/30 02:51:41;;;;;;;;;4.75;3.50;;;;;22.35;35.40;101658.69;4958633;28;45225;-39
2023/05/30 02:54:06;;;;;;;;;4.25;3.25;;;;;22.35;35.59;101660.44;4958860;28;45227;-39
2023/05/30 02:56:32;;;;;;;;;3.00;3.00;;;;;22.35;35.48;101661.31;4958799;28;45364;-41
2023/05/30 02:58:59;;;;;;;;;3.50;3.00;;;;;22.34;35.63;101662.25;4958379;28;46813;-39
2023/05/30 03:01:24;;;;;;;;;5.25;3.00;;;;;22.33;35.33;101657.91;4941364;28;45753;-39
2023/05/30 03:03:49;;;;;;;;;2.50;1.50;;;;;22.33;35.58;101657.03;4958554;28;45321;-40
2023/05/30 03:06:14;;;;;;;;;3.00;2.75;;;;;22.31;35.36;101664.19;4958846;28;45720;-41
2023/05/30 03:08:41;;;;;;;;;2.50;2.00;;;;;22.32;35.46;101658.84;4958381;28;45487;-41
2023/05/30 03:11:06;;;;;;;;;4.25;3.25;;;;;22.31;35.26;101664.19;4958309;28;45879;-40
2023/05/30 03:13:32;;;;;;;;;2.75;2.00;;;;;22.29;35.58;101663.41;4957692;28;58716;-39
2023/05/30 03:15:57;;;;;;;;;4.75;3.25;;;;;22.29;35.45;101663.41;4957966;28;47827;-41
2023/05/30 03:18:22;;;;;;;;;4.50;3.75;;;;;22.28;35.37;101666.97;4958496;28;45276;-39
2023/05/30 03:20:48;;;;;;;;;4.50;3.00;;;;;22.28;35.80;101674.91;4958101;28;45240;-39
2023/05/30 03:23:13;;;;;;;;;4.50;3.00;;;;;22.27;35.45;101668.75;4957485;28;45392;-40
2023/05/30 03:25:38;;;;;;;;;4.25;3.50;;;;;22.26;35.15;101675.00;4958090;28;45330;-40
2023/05/30 03:28:06;;;;;;;;;4.00;4.00;;;;;22.25;35.26;101670.63;4957509;28;57607;-39
2023/05/30 03:30:32;;;;;;;;;5.75;3.00;;;;;22.23;35.29;101670.69;4958122;28;45182;-46
2023/05/30 03:32:58;;;;;;;;;3.25;3.00;;;;;22.24;35.36;101677.69;4958202;28;45479;-39
2023/05/30 03:35:23;;;;;;;;;3.00;3.00;;;;;22.23;35.27;101669.84;4958578;28;45476;-39
2023/05/30 03:37:49;;;;;;;;;3.00;3.00;;;;;22.22;35.29;101676.91;4957868;28;46176;-39
2023/05/30 03:40:14;;;;;;;;;3.00;3.00;;;;;22.22;35.29;101671.63;4957380;28;56476;-41
2023/05/30 03:42:39;;;;;;;;;5.00;2.50;;;;;22.21;35.13;101677.84;4957935;28;45329;-42
2023/05/30 03:45:05;;;;;;;;;3.00;2.75;;;;;22.21;35.23;101677.84;4957974;28;45343;-40
2023/05/30 03:47:30;;;;;;;;;3.25;2.25;;;;;22.21;34.97;101671.72;4957696;28;45290;-39
2023/05/30 03:49:56;;;;;;;;;4.75;3.50;;;;;22.19;35.21;101669.16;4957459;28;48528;-38
2023/05/30 03:52:21;;;;;;;;;4.00;3.00;;;;;22.19;35.02;101671.78;4956932;28;45476;-38
2023/05/30 03:54:46;;;;;;;;;3.33;3.33;;;;;22.18;35.29;101675.38;4956775;28;53556;-41
2023/05/30 03:57:11;;;;;;;;;3.00;3.00;;;;;22.18;35.24;101680.66;4956924;28;63708;-42
2023/05/30 03:59:38;;;;;;;;;4.00;2.50;;;;;22.17;35.10;101683.34;4957620;28;45211;-39
2023/05/30 04:02:03;;;;;;;;;3.50;3.50;;;;;22.16;35.24;101685.13;4956990;28;45387;-40
2023/05/30 04:04:29;;;;;;;;;3.00;3.00;;;;;22.16;35.38;101687.78;4956514;28;45395;-39
2023/05/30 04:06:54;;;;;;;;;3.00;3.00;;;;;22.15;35.10;101687.88;4957276;28;60846;-39
2023/05/30 04:09:20;;;;;;;;;4.00;2.75;;;;;22.14;35.18;101680.88;4957520;28;45309;-41
2023/05/30 04:11:45;;;;;;;;;4.00;4.00;;;;;22.13;35.06;101680.00;4957454;28;45213;-39
2023/05/30 04:14:11;;;;;;;;;3.00;3.00;;;;;22.14;34.92;101689.63;4957594;28;45234;-38
2023/05/30 04:16:36;;;;;;;;;4.50;3.00;;;;;22.14;34.89;101687.00;4956290;28;47196;-39
2023/05/30 04:19:02;;;;;;;;;5.00;3.00;;;;;22.13;35.20;101693.19;4957521;28;45694;-39
2023/05/30 04:21:28;;;;;;;;;3.50;2.00;;;;;22.14;35.21;101694.91;4957826;28;45531;-39
2023/05/30 04:23:53;;;;;;;;;2.50;2.00;;;;;22.14;34.98;101692.28;4957775;28;45517;-38
2023/05/30 04:26:18;;;;;;;;;2.25;1.75;;;;;22.13;34.98;101693.19;4957671;28;45940;-39
2023/05/30 04:28:44;;;;;;;;;7.25;7.00;;;;;22.12;35.22;101699.41;4960731;28;45381;-41
2023/05/30 04:31:10;;;;;;;;;4.00;4.00;;;;;22.13;35.13;101695.84;4960857;28;45365;-42
2023/05/30 04:33:37;;;;;;;;;4.50;4.00;;;;;22.13;35.20;101701.13;4961014;28;45278;-38
2023/05/30 04:36:06;;;;;;;;;4.00;4.00;;;;;22.13;35.20;101695.84;4960779;28;47066;-39
2023/05/30 04:38:34;;;;;;;;;5.00;5.00;;;;;22.14;34.97;101707.28;4960666;28;45758;-38
2023/05/30 04:41:02;;;;;;;;;5.00;5.00;;;;;22.11;35.18;101713.53;4960911;28;45418;-37
2023/05/30 04:43:28;;;;;;;;;6.50;5.00;;;;;22.11;35.26;101713.53;4961161;28;45544;-40
2023/05/30 04:45:54;;;;;;;;;5.50;4.50;;;;;22.12;35.13;101720.53;4960445;28;46723;-39
2023/05/30 04:48:19;;;;;;;;;5.25;3.75;;;;;22.12;35.19;101724.97;4960606;28;45263;-40
2023/05/30 04:50:46;;;;;;;;;3.50;3.00;;;;;22.11;35.21;101726.75;4960426;28;45227;-39
2023/05/30 04:53:15;;;;;;;;;7.25;5.75;;;;;22.09;34.99;101725.97;4960729;28;45539;-39
2023/05/30 04:55:41;;;;;;;;;5.75;4.00;;;;;22.10;35.07;101719.78;4960293;28;46898;-40
2023/05/30 04:58:10;;;;;;;;;4.00;3.00;;;;;22.09;35.27;101725.97;4960466;28;45360;-38
2023/05/30 05:00:36;;;;;;;;;5.00;3.75;;;;;22.09;35.16;101726.81;4960397;28;45316;-42
2023/05/30 05:03:02;;;;;;;;;5.25;3.50;;;;;22.10;35.09;101722.41;4960645;28;45535;-38
2023/05/30 05:05:27;;;;;;;;;3.00;3.00;;;;;22.10;35.22;101725.06;4960352;28;46089;-39
2023/05/30 05:07:53;;;;;;;;;3.00;3.00;;;;;22.08;34.81;101719.81;4960233;28;45313;-38
2023/05/30 05:10:18;;;;;;;;;5.00;3.50;;;;;22.09;35.10;101726.81;4960123;28;45348;-39
2023/05/30 05:12:44;;;;;;;;;5.00;3.25;;;;;22.09;35.04;101728.63;4960461;28;45416;-38
2023/05/30 05:15:10;;;;;;;;;5.00;4.25;;;;;22.09;35.15;101737.38;4942362;28;46441;-38
2023/05/30 05:17:36;;;;;;;;;4.75;2.75;;;;;22.08;34.91;101729.53;4960010;28;45447;-38
2023/05/30 05:20:02;;;;;;;;;5.75;3.00;;;;;22.10;35.07;101735.63;4960281;28;45397;-39
2023/05/30 05:22:28;;;;;;;;;4.25;3.25;;;;;22.08;35.16;101733.03;4960498;28;45294;-38
2023/05/30 05:24:53;;;;;;;;;4.00;2.25;;;;;22.09;34.54;101731.25;4959823;28;46111;-41
2023/05/30 05:27:18;;;;;;;;;3.00;3.00;;;;;22.08;34.91;101727.75;4942590;28;45645;-39
2023/05/30 05:29:44;;;;;;;;;4.75;3.00;;;;;22.09;34.97;101731.25;4959674;28;50377;-42
2023/05/30 05:32:09;;;;;;;;;4.67;2.33;;;;;22.09;35.13;101737.38;4959441;28;52641;-40
2023/05/30 05:34:34;;;;;;;;;6.00;2.75;;;;;22.09;35.03;101740.03;4959327;28;55247;-41
2023/05/30 05:37:00;;;;;;;;;2.25;2.25;;;;;22.11;35.09;101744.38;4960102;28;45362;-42
2023/05/30 05:39:25;;;;;;;;;2.75;2.75;;;;;22.09;34.94;101736.53;4958556;28;45273;-40
2023/05/30 05:41:51;;;;;;;;;2.00;2.00;;;;;22.09;34.91;101739.19;4959928;28;45620;-41
2023/05/30 05:44:16;;;;;;;;;4.67;2.00;;;;;22.09;34.97;101747.09;4959041;28;67060;-42
2023/05/30 05:46:41;;;;;;;;;3.25;2.00;;;;;22.07;34.93;101744.50;4959615;28;45215;-41
2023/05/30 05:49:06;;;;;;;;;4.00;3.00;;;;;22.08;34.89;101742.75;4959840;28;45565;-39
2023/05/30 05:51:32;;;;;;;;;2.50;2.00;;;;;22.08;35.17;101742.75;4959913;28;45615;-39
2023/05/30 05:53:57;;;;;;;;;3.00;3.00;;;;;22.07;34.83;101747.16;4959517;28;46122;-42
2023/05/30 05:56:22;;;;;;;;;3.00;2.25;;;;;22.07;34.89;101748.94;4958907;28;61024;-41
2023/05/30 05:58:48;;;;;;;;;2.50;2.50;;;;;22.07;34.70;101749.78;4959544;28;45294;-39
2023/05/30 06:01:13;;;;;;;;;1.00;1.00;;;;;22.08;34.78;101755.94;4959473;28;45615;-40
2023/05/30 06:03:38;;;;;;;;;3.75;3.50;;;;;22.06;34.83;101745.44;4959214;28;47278;-41
2023/05/30 06:06:04;;;;;;;;;3.25;3.00;;;;;22.06;34.95;101748.06;4958996;28;57747;-39
2023/05/30 06:08:29;;;;;;;;;5.50;3.50;;;;;22.05;34.88;101746.38;4959372;28;45373;-39
2023/05/30 06:10:54;;;;;;;;;2.75;2.75;;;;;22.07;34.78;101751.59;4959012;28;46342;-39
2023/05/30 06:13:20;;;;;;;;;5.75;3.00;;;;;22.07;34.77;101748.94;4941372;28;48184;-39
2023/05/30 06:15:45;;;;;;;;;3.00;3.00;;;;;22.07;34.69;101749.78;4941545;28;45481;-39
2023/05/30 06:18:10;;;;;;;;;2.75;2.75;;;;;22.07;34.59;101748.94;4959313;28;45398;-38
2023/05/30 06:20:36;;;;;;;;;5.00;2.00;;;;;22.11;34.95;101757.56;4959232;28;45624;-40
2023/05/30 06:23:01;;;;;;;;;3.25;2.25;;;;;22.12;34.74;101752.22;4958802;28;54903;-38
2023/05/30 06:25:27;;;;;;;;;5.00;4.00;;;;;22.13;34.79;101753.09;4959030;28;45497;-39
2023/05/30 06:27:53;;;;;;;;;7.00;1.75;;;;;22.13;34.70;101755.72;4959162;28;45492;-41
2023/05/30 06:30:18;;;;;;;;;3.00;2.00;;;;;22.19;34.86;101755.41;4959219;28;45322;-39
2023/05/30 06:32:44;;;;;;;;;3.25;3.25;;;;;22.24;35.06;101761.34;4958700;28;45343;-39
2023/05/30 06:35:10;;;;;;;;;3.50;3.00;;;;;22.28;35.15;101752.31;4958729;28;45246;-38
2023/05/30 06:37:35;;;;;;;;;3.50;3.00;;;;;22.30;34.88;101752.28;4941695;28;45439;-39
2023/05/30 06:40:01;;;;;;;;;5.00;4.00;;;;;22.31;35.07;101748.72;4958996;28;45670;-41
2023/05/30 06:42:26;;;;;;;;;6.00;3.00;;;;;22.34;35.22;101751.19;4958463;28;46092;-38
2023/05/30 06:44:52;;;;;;;;;2.50;2.00;;;;;22.37;34.96;101751.03;4958617;28;45283;-38
2023/05/30 06:47:17;;;;;;;;;3.50;3.00;;;;;22.38;35.14;101748.31;4958786;28;45410;-39
2023/05/30 06:49:43;;;;;;;;;4.00;3.00;;;;;22.41;35.24;101752.63;4958487;28;45314;-38
2023/05/30 06:52:08;;;;;;;;;3.50;3.25;;;;;22.43;35.18;101750.78;4958439;28;45996;-40
2023/05/30 06:54:33;;;;;;;;;8.75;3.00;;;;;22.44;34.73;101754.28;4958320;28;54667;-39
2023/05/30 06:57:02;;;;;;;;;4.50;2.50;;;;;22.45;35.03;101756.81;4941118;28;45415;-39
2023/05/30 06:59:28;;;;;;;;;5.75;4.50;;;;;22.47;35.07;101762.06;4958565;28;46176;-39
2023/05/30 07:01:54;;;;;;;;;9.00;7.00;;;;;22.48;35.34;101764.59;4958059;28;46532;-43
2023/05/30 07:04:19;;;;;;;;;4.50;3.25;;;;;22.50;35.28;101769.81;4958209;28;45426;-41
2023/05/30 07:06:45;;;;;;;;;8.50;3.00;;;;;22.51;35.30;101763.59;4958296;28;45323;-43
2023/05/30 07:09:11;;;;;;;;;5.25;2.00;;;;;22.52;35.49;101750.34;4958672;28;45481;-39
2023/05/30 07:11:36;;;;;;;;;8.75;4.00;;;;;22.52;35.42;101758.25;4957896;28;62509;-40
2023/05/30 07:14:01;;;;;;;;;4.25;3.00;;;;;22.54;35.20;101755.53;4957984;28;45293;-38
2023/05/30 07:16:27;;;;;;;;;4.25;2.00;;;;;22.55;35.09;101760.72;4958388;28;45887;-41
2023/05/30 07:18:52;;;;;;;;;3.50;2.00;;;;;22.56;35.18;101764.22;4958456;28;45442;-39
2023/05/30 07:21:17;;;;;;;;;2.25;2.25;;;;;22.57;35.00;101757.16;4957855;28;47152;-40
2023/05/30 07:23:43;;;;;;;;;2.25;2.25;;;;;22.54;34.94;101753.72;4958255;28;45419;-40
2023/05/30 07:26:08;;;;;;;;;3.75;2.50;;;;;22.58;35.00;101754.44;4958535;28;45315;-39
2023/05/30 07:28:33;;;;;;;;;5.75;2.50;;;;;22.57;34.96;101758.03;4957731;28;45378;-39
2023/05/30 07:30:59;;;;;;;;;3.00;2.25;;;;;22.57;34.86;101751.88;4957823;28;45487;-39
2023/05/30 07:33:24;;;;;;;;;3.25;2.00;;;;;22.57;34.95;101757.16;4957899;28;45425;-40
2023/05/30 07:35:49;;;;;;;;;3.00;3.00;;;;;22.55;34.71;101758.06;4939861;28;45368;-38
2023/05/30 07:38:14;;;;;;;;;4.50;3.00;;;;;22.53;34.63;101761.72;4924758;28;45608;-41
2023/05/30 07:40:40;;;;;;;;;10.75;3.75;;;;;22.52;34.69;101755.63;4957587;28;52978;-42
2023/05/30 07:43:05;;;;;;;;;7.00;3.50;;;;;22.54;34.43;101759.00;4958136;28;45467;-40
2023/05/30 07:45:31;;;;;;;;;5.75;2.75;;;;;22.54;34.74;101758.16;4957912;28;45327;-39
2023/05/30 07:47:56;;;;;;;;;2.00;2.00;;;;;22.57;34.90;101759.78;4957272;28;54593;-39
2023/05/30 07:50:21;;;;;;;;;3.25;2.50;;;;;22.58;34.95;101759.75;4957629;28;45427;-40
2023/05/30 07:52:47;;;;;;;;;3.00;2.50;;;;;22.60;34.80;101764.94;4957700;28;45477;-42
2023/05/30 07:55:12;;;;;;;;;4.00;4.00;;;;;22.60;35.16;101762.28;4940169;28;51828;-40
2023/05/30 07:57:37;;;;;;;;;4.75;3.25;;;;;22.62;35.11;101760.44;4940935;28;45513;-40
2023/05/30 08:00:08;;;;;;;;;6.50;3.25;;;;;22.64;35.08;101766.50;4957380;28;51735;-37
2023/05/30 08:02:34;;;;;;;;;3.50;3.25;;;;;22.66;35.16;101767.25;4956547;28;45405;-39
2023/05/30 08:04:59;;;;;;;;;2.25;2.25;;;;;22.67;35.14;101769.84;4957595;28;45310;-37
2023/05/30 08:07:24;;;;;;;;;2.00;2.00;;;;;22.69;34.93;101772.41;4957693;28;45461;-38
2023/05/30 08:09:50;;;;;;;;;3.00;2.00;;;;;22.72;35.06;101768.75;4957239;28;46127;-38
2023/05/30 08:12:20;;;;;;;;;6.00;3.25;;;;;22.72;35.04;101777.53;4956719;28;45396;-39
2023/05/30 08:14:46;;;;;;;;;5.25;3.00;;;;;22.72;35.12;101768.75;4955943;28;45470;-39
2023/05/30 08:17:12;;;;;;;;;6.75;3.25;;;;;22.74;35.06;101777.44;4957940;28;45248;-39
2023/05/30 08:19:39;;;;;;;;;5.00;3.50;;;;;22.75;35.29;101780.03;4957511;28;46936;-39
2023/05/30 08:22:06;;;;;;;;;3.00;3.00;;;;;22.76;35.12;101772.94;4939780;28;45782;-38
2023/05/30 08:24:31;;;;;;;;;3.00;3.00;;;;;22.76;35.35;101781.75;4957451;28;45329;-38
2023/05/30 08:26:56;;;;;;;;;8.75;3.75;;;;;22.77;35.05;101778.16;4957569;28;45351;-39
2023/05/30 08:29:22;;;;;;;;;3.50;3.00;;;;;22.79;35.21;101778.09;4957141;28;45461;-39
2023/05/30 08:31:48;;;;;;;;;5.00;3.25;;;;;22.79;35.03;101768.38;4956039;28;45365;-40
2023/05/30 08:34:15;;;;;;;;;3.50;3.50;;;;;22.80;35.17;101767.44;4957261;28;45290;-40
2023/05/30 08:36:40;;;;;;;;;5.00;3.25;;;;;22.80;35.25;101775.38;4940489;28;45248;-40
2023/05/30 08:39:06;;;;;;;;;4.00;2.00;;;;;22.81;35.36;101769.16;4957091;28;45216;-43
2023/05/30 08:41:31;;;;;;;;;2.00;2.00;;;;;22.81;35.05;101777.06;4939598;28;45728;-41
2023/05/30 08:43:57;;;;;;;;;4.00;3.25;;;;;22.83;35.22;101779.63;4939939;28;45301;-41
2023/05/30 08:46:23;;;;;;;;;5.50;3.00;;;;;22.83;35.35;101772.56;4939951;28;45335;-41
2023/05/30 08:48:48;;;;;;;;;5.25;3.50;;;;;22.84;35.14;101766.34;4956808;28;45944;-41
2023/05/30 08:51:15;;;;;;;;;5.00;4.00;;;;;22.84;35.33;101769.00;4957180;28;45408;-40
2023/05/30 08:53:49;;;;;;;;;3.00;2.00;;;;;22.85;35.33;101759.28;4957407;28;45398;-40
2023/05/30 08:56:33;;;;;;;;;4.00;2.25;;;;;22.86;35.24;101763.63;4940050;28;45402;-38
2023/05/30 08:59:00;;;;;;;;;3.00;3.00;;;;;22.87;35.22;101759.22;4956877;28;46250;-40
2023/05/30 09:01:27;;;;;;;;;3.75;3.75;;;;;22.87;35.37;101757.41;4956658;28;45868;-40
2023/05/30 09:04:02;;;;;;;;;2.75;1.75;;;;;22.89;35.17;101762.59;4956927;28;45440;-41
2023/05/30 09:06:28;;;;;;;;;1.75;1.75;;;;;22.90;35.45;101756.38;4956905;28;45311;-43
2023/05/30 09:08:55;;;;;;;;;3.00;2.00;;;;;22.90;35.39;101759.03;4956604;28;45984;-39
2023/05/30 09:11:23;;;;;;;;;1.00;0.50;;;;;22.91;35.29;101755.47;4956713;28;45652;-38
2023/05/30 09:13:48;;;;;;;;;3.75;3.00;;;;;22.92;35.19;101758.03;4959194;28;45458;-39
2023/05/30 09:16:14;;;;;;;;;3.00;3.00;;;;;22.93;35.26;101758.88;4960578;28;45505;-39
2023/05/30 09:18:39;;;;;;;;;4.00;2.00;;;;;22.93;35.45;101753.59;4959846;28;46361;-40
2023/05/30 09:21:05;;;;;;;;;3.25;2.00;;;;;22.93;35.21;101748.31;4959816;28;45444;-39
2023/05/30 09:23:30;;;;;;;;;3.00;1.00;;;;;22.93;35.12;101745.66;4959944;28;45343;-39
2023/05/30 09:25:59;;;;;;;;;2.00;2.00;;;;;22.94;35.17;101750.88;4960163;28;45372;-39
2023/05/30 09:28:28;;;;;;;;;0.00;0.00;;;;;22.95;35.11;101747.28;4959831;28;46200;-39
2023/05/30 09:30:55;;;;;;;;;6.75;3.00;;;;;22.95;35.43;101751.75;4959717;28;45829;-39
2023/05/30 09:33:21;;;;;;;;;2.00;2.00;;;;;22.96;35.43;101748.16;4959777;28;45539;-42
2023/05/30 09:35:50;;;;;;;;;3.25;2.25;;;;;22.97;35.45;101744.59;4960146;28;45583;-40
2023/05/30 09:38:17;;;;;;;;;3.50;2.00;;;;;22.96;35.30;101742.88;4959792;28;46634;-40
2023/05/30 09:40:43;;;;;;;;;3.25;2.00;;;;;22.97;35.33;101741.94;4959811;28;45790;-42
2023/05/30 09:43:08;;;;;;;;;1.00;1.00;;;;;22.97;34.98;101749.88;4959661;28;45520;-42
2023/05/30 09:45:33;;;;;;;;;3.50;3.00;;;;;22.98;35.39;101752.44;4942096;28;45581;-40
2023/05/30 09:47:59;;;;;;;;;2.75;2.75;;;;;22.99;35.39;101748.84;4959406;28;46003;-41
2023/05/30 09:50:24;;;;;;;;;3.00;2.00;;;;;22.99;35.41;101750.63;4959535;28;45322;-43
2023/05/30 09:52:56;;;;;;;;;2.25;2.25;;;;;23.00;35.41;101744.41;4959581;28;45447;-41
2023/05/30 09:55:24;;;;;;;;;2.50;2.50;;;;;23.00;35.58;101747.06;4943160;28;45450;-43
2023/05/30 09:57:51;;;;;;;;;2.00;2.00;;;;;23.00;35.18;101747.91;4959363;28;45464;-41
2023/05/30 10:00:22;;;;;;;;;2.00;2.00;;;;;23.02;35.33;101742.53;4959602;28;45728;-41
2023/05/30 10:02:56;;;;;;;;;4.00;2.00;;;;;23.01;35.34;101746.13;4959852;28;45493;-41
2023/05/30 10:05:26;;;;;;;;;2.50;2.25;;;;;23.02;35.47;101747.84;4959529;28;45636;-40
2023/05/30 10:07:53;;;;;;;;;2.00;2.00;;;;;23.02;35.26;101742.53;4959243;28;46195;-43
2023/05/30 10:10:19;;;;;;;;;3.00;2.00;;;;;23.04;35.02;101740.69;4959645;28;45258;-44
2023/05/30 10:12:48;;;;;;;;;4.50;3.00;;;;;23.04;35.27;101743.31;4959780;28;45338;-40
2023/05/30 10:15:14;;;;;;;;;2.00;2.00;;;;;23.06;35.19;101737.94;4959217;28;45664;-40
2023/05/30 10:17:47;;;;;;;;;3.75;3.75;;;;;23.06;35.40;101737.94;4959046;28;47397;-40
2023/05/30 10:20:15;;;;;;;;;1.00;1.00;;;;;23.05;35.18;101737.09;4958864;28;45693;-39
2023/05/30 10:22:44;;;;;;;;;3.25;2.00;;;;;23.06;35.48;101740.59;4959098;28;45394;-40
2023/05/30 10:25:11;;;;;;;;;1.75;1.75;;;;;23.07;35.28;101742.31;4941204;28;45704;-43
2023/05/30 10:27:42;;;;;;;;;3.75;1.50;;;;;23.08;35.23;101733.44;4958860;28;46303;-41
2023/05/30 10:30:12;;;;;;;;;3.75;3.00;;;;;23.06;35.68;101736.19;4958728;28;45466;-40
2023/05/30 10:32:43;;;;;;;;;2.00;2.00;;;;;23.07;35.78;101737.00;4958901;28;45422;-40
2023/05/30 10:35:11;;;;;;;;;3.75;3.00;;;;;23.07;35.24;101737.88;4958711;28;45529;-41
2023/05/30 10:37:38;;;;;;;;;2.50;2.00;;;;;23.09;35.36;101733.38;4958749;28;46038;-40
2023/05/30 10:40:12;;;;;;;;;2.50;2.50;;;;;23.08;35.41;101739.59;4958753;28;45358;-44
2023/05/30 10:42:45;;;;;;;;;1.00;1.00;;;;;23.09;35.80;101740.44;4958959;28;45460;-40
2023/05/30 10:45:17;;;;;;;;;2.25;2.25;;;;;23.09;35.55;101733.38;4959000;28;45259;-40
2023/05/30 10:47:51;;;;;;;;;1.75;1.75;;;;;23.09;35.49;101728.09;4958699;28;46011;-41
2023/05/30 10:50:25;;;;;;;;;4.75;3.00;;;;;23.10;35.53;101721.84;4958848;28;45330;-42
2023/05/30 10:52:54;;;;;;;;;2.00;2.00;;;;;23.10;35.34;101715.72;4942550;28;45457;-43
2023/05/30 10:55:20;;;;;;;;;3.25;1.75;;;;;23.10;35.73;101723.66;4959173;28;45196;-40
2023/05/30 10:57:45;;;;;;;;;2.00;2.00;;;;;23.11;35.59;101717.44;4958547;28;45217;-39
2023/05/30 11:00:21;;;;;;;;;3.75;2.00;;;;;23.10;35.37;101713.06;4958369;28;45363;-42
2023/05/30 11:02:51;;;;;;;;;3.00;3.00;;;;;23.10;35.78;101713.91;4958476;28;45283;-42
2023/05/30 11:05:30;;;;;;;;;4.50;3.00;;;;;23.11;35.52;101705.03;4958555;28;45473;-42
2023/05/30 11:07:58;;;;;;;;;4.75;3.00;;;;;23.11;35.61;101697.09;4958261;28;46030;-40
2023/05/30 11:10:25;;;;;;;;;5.25;4.00;;;;;23.12;35.98;101695.34;4958261;28;45442;-41
2023/05/30 11:12:51;;;;;;;;;5.50;5.00;;;;;23.12;35.62;101700.63;4958833;28;45491;-42
2023/05/30 11:15:31;;;;;;;;;7.50;6.00;;;;;23.11;35.69;101710.31;4958381;28;45551;-41
2023/05/30 11:17:57;;;;;;;;;5.25;5.00;;;;;23.12;35.77;101706.75;4958325;28;46413;-40
2023/05/30 11:20:22;;;;;;;;;8.00;6.00;;;;;23.13;35.86;101687.31;4958603;28;45280;-41
2023/05/30 11:23:03;;;;;;;;;6.00;6.00;;;;;23.13;35.75;101687.31;4958278;28;45363;-40